Time;durP1;ratioP1;P1;durP2;ratioP2;P2;SDS_P1;SDS_P2;PMS_P1;PMS_P2;Temp;Humidity;BMP_temperature;BMP_pressure;BME280_temperature;BME280_humidity;BME280_pressure;Samples;Min_cycle;Max_cycle;Signal;HPM_P1;HPM_P2
2022/06/21 00:01:37;;;;;;;12.20;6.83;;;;;;;10.01;100.00;100581.47;7385741;19;20486;-61
2022/06/21 00:04:07;;;;;;;15.67;7.87;;;;;;;10.01;100.00;100599.53;7393641;19;20400;-61
2022/06/21 00:06:37;;;;;;;19.10;8.80;;;;;;;10.09;100.00;100628.19;7374849;19;20925;-61
2022/06/21 00:09:12;;;;;;;12.90;7.67;;;;;;;10.08;100.00;100685.72;7393217;19;20396;-61
2022/06/21 00:11:42;;;;;;;23.70;7.27;;;;;;;9.97;100.00;101015.19;7384272;19;20410;-61
2022/06/21 00:14:12;;;;;;;12.07;7.13;;;;;;;9.90;100.00;101056.94;7395863;19;20501;-60
2022/06/21 00:16:42;;;;;;;25.30;12.70;;;;;;;9.99;100.00;101183.69;7386122;19;20777;-61
2022/06/21 00:19:18;;;;;;;16.70;7.80;;;;;;;10.02;100.00;101183.84;7396982;19;20731;-61
2022/06/21 00:21:49;;;;;;;12.67;7.10;;;;;;;9.99;100.00;101214.63;7385655;19;20435;-61
2022/06/21 00:24:21;;;;;;;23.37;9.47;;;;;;;9.96;100.00;101220.50;7393150;19;20405;-60
2022/06/21 00:26:51;;;;;;;17.30;7.27;;;;;;;9.98;100.00;101228.31;7387103;19;20418;-61
2022/06/21 00:29:20;;;;;;;14.47;6.93;;;;;;;9.88;100.00;101229.53;7393209;19;20435;-61
2022/06/21 00:31:53;;;;;;;17.53;8.40;;;;;;;9.88;100.00;101231.25;7370262;19;20431;-61
2022/06/21 00:34:24;;;;;;;18.33;8.10;;;;;;;9.81;100.00;101238.66;7392432;19;20828;-60
2022/06/21 00:36:54;;;;;;;19.87;7.77;;;;;;;9.73;100.00;101237.34;7382866;19;20827;-60
2022/06/21 00:39:27;;;;;;;17.07;7.57;;;;;;;9.77;100.00;101240.97;7392101;19;20463;-60
2022/06/21 00:41:59;;;;;;;15.80;7.93;;;;;;;9.76;100.00;101226.31;7384591;19;20411;-60
2022/06/21 00:44:34;;;;;;;13.53;7.70;;;;;;;9.77;100.00;101218.66;7392312;19;20974;-61
2022/06/21 00:47:05;;;;;;;18.17;7.70;;;;;;;9.75;100.00;101220.28;7384961;19;20414;-60
2022/06/21 00:49:38;;;;;;;25.23;9.77;;;;;;;9.72;100.00;101210.72;7391960;19;20396;-61
2022/06/21 00:52:12;;;;;;;18.00;8.60;;;;;;;9.73;100.00;101211.56;7385386;19;20954;-61
2022/06/21 00:54:52;;;;;;;20.83;9.63;;;;;;;9.72;100.00;101202.06;7392711;19;20370;-61
2022/06/21 00:57:24;;;;;;;23.43;9.00;;;;;;;9.68;100.00;101207.88;7389312;19;20752;-60
2022/06/21 00:59:58;;;;;;;16.03;8.97;;;;;;;9.70;100.00;101207.16;7391711;19;20471;-61
2022/06/21 01:02:31;;;;;;;21.17;9.20;;;;;;;9.66;100.00;101209.50;7380917;19;20419;-61
2022/06/21 01:05:02;;;;;;;24.00;9.10;;;;;;;9.67;100.00;101201.84;7392363;19;20410;-61
2022/06/21 01:07:33;;;;;;;22.17;9.53;;;;;;;9.68;100.00;101205.28;7381872;19;20446;-60
2022/06/21 01:10:09;;;;;;;12.97;9.53;;;;;;;9.61;100.00;101204.09;7390893;19;20941;-60
2022/06/21 01:12:42;;;;;;;23.47;9.90;;;;;;;9.65;100.00;101200.00;7388529;19;20937;-61
2022/06/21 01:15:17;;;;;;;22.50;9.40;;;;;;;9.54;100.00;101197.72;7399531;19;20386;-61
2022/06/21 01:17:49;;;;;;;19.57;8.97;;;;;;;9.53;100.00;101193.38;7388547;19;20419;-61
2022/06/21 01:20:23;;;;;;;26.93;12.43;;;;;;;9.52;100.00;101198.44;7397254;19;20415;-61
2022/06/21 01:22:58;;;;;;;16.67;9.60;;;;;;;9.54;100.00;101200.28;7390758;19;20449;-60
2022/06/21 01:25:36;;;;;;;22.23;9.70;;;;;;;9.53;100.00;101189.94;7399145;19;20380;-61
2022/06/21 01:28:10;;;;;;;25.77;11.80;;;;;;;9.55;100.00;101196.03;7391037;19;20419;-61
2022/06/21 01:30:40;;;;;;;26.37;10.87;;;;;;;9.46;100.00;101201.59;7396586;19;20427;-61
2022/06/21 01:33:12;;;;;;;22.50;10.53;;;;;;;9.42;100.00;101194.50;7393277;19;20419;-61
2022/06/21 01:35:44;;;;;;;21.80;10.67;;;;;;;9.43;100.00;101202.31;7399067;19;20380;-61
2022/06/21 01:38:18;;;;;;;24.00;12.40;;;;;;;9.46;100.00;101196.44;7379814;19;20448;-61
2022/06/21 01:40:51;;;;;;;29.10;12.00;;;;;;;9.47;100.00;101197.34;7396705;19;20411;-60
2022/06/21 01:43:26;;;;;;;25.63;10.50;;;;;;;9.37;100.00;101193.34;7398524;19;20414;-61
2022/06/21 01:45:58;;;;;;;35.10;13.30;;;;;;;9.45;100.00;101190.38;7389786;19;20409;-61
2022/06/21 01:48:32;;;;;;;20.23;10.57;;;;;;;9.48;100.00;101191.38;7397597;19;20398;-61
2022/06/21 01:51:05;;;;;;;25.50;10.77;;;;;;;9.48;100.00;101184.50;7388760;19;20490;-60
2022/06/21 01:53:36;;;;;;;21.40;9.70;;;;;;;9.39;100.00;101178.91;7398281;19;20395;-60
2022/06/21 01:56:09;;;;;;;32.70;10.00;;;;;;;9.45;100.00;101168.91;7391703;19;20382;-60
2022/06/21 01:58:43;;;;;;;26.17;9.90;;;;;;;9.44;100.00;101174.88;7398061;19;20384;-60
2022/06/21 02:01:17;;;;;;;23.77;9.00;;;;;;;9.43;100.00;101161.09;7385648;19;20415;-61
2022/06/21 02:03:47;;;;;;;25.57;9.03;;;;;;;9.40;100.00;101167.78;7397902;19;20395;-60
2022/06/21 02:06:17;;;;;;;20.10;10.17;;;;;;;9.41;100.00;101141.22;7391776;19;20435;-61
2022/06/21 02:08:50;;;;;;;29.53;8.73;;;;;;;9.41;100.00;101136.97;7400750;19;20391;-61
2022/06/21 02:11:24;;;;;;;23.30;8.93;;;;;;;9.44;100.00;101129.38;7386058;19;20926;-61
2022/06/21 02:16:43;;;;;;;22.23;9.40;;;;;;;9.46;100.00;101106.28;7392326;19;20414;-61
2022/06/21 02:19:18;;;;;;;32.47;9.93;;;;;;;9.48;100.00;101099.50;7396732;19;20388;-60
2022/06/21 02:21:48;;;;;;;28.13;10.13;;;;;;;9.45;100.00;101094.22;7390297;19;20445;-60
2022/06/21 02:24:17;;;;;;;34.43;15.10;;;;;;;9.49;100.00;101093.56;7397084;19;20403;-61
2022/06/21 02:26:48;;;;;;;31.60;9.97;;;;;;;9.47;100.00;101081.44;7385537;19;20415;-60
2022/06/21 02:29:20;;;;;;;30.20;9.50;;;;;;;9.52;100.00;101077.38;7396395;19;20390;-60
2022/06/21 02:31:49;;;;;;;34.23;12.53;;;;;;;9.56;100.00;101072.47;7389033;19;20411;-61
2022/06/21 02:34:35;;;;;;;26.13;9.23;;;;;;;9.59;100.00;101064.03;7396799;19;20383;-60
2022/06/21 02:37:05;;;;;;;27.87;10.70;;;;;;;9.49;100.00;101062.66;7388709;19;20415;-61
2022/06/21 02:39:36;;;;;;;26.90;10.70;;;;;;;9.49;100.00;101066.94;7395999;19;20394;-61
2022/06/21 02:42:12;;;;;;;25.53;10.43;;;;;;;9.45;100.00;101064.19;7386312;19;20506;-60
2022/06/21 02:44:47;;;;;;;23.77;10.03;;;;;;;9.42;100.00;101065.72;7396187;19;20383;-61
2022/06/21 02:47:19;;;;;;;21.93;9.30;;;;;;;9.50;100.00;101069.59;7391984;19;20470;-60
2022/06/21 02:49:53;;;;;;;29.37;10.90;;;;;;;9.47;100.00;101059.13;7394878;19;20391;-61
2022/06/21 02:52:26;;;;;;;26.60;10.40;;;;;;;9.51;100.00;101061.06;7387858;19;20418;-61
2022/06/21 02:55:01;;;;;;;28.57;12.83;;;;;;;9.53;100.00;101051.69;7394264;19;20482;-61
2022/06/21 02:57:35;;;;;;;29.57;9.90;;;;;;;9.51;100.00;101053.31;7387861;19;20429;-61
2022/06/21 03:00:10;;;;;;;26.43;10.60;;;;;;;9.42;100.00;101053.75;7394037;19;20751;-61
2022/06/21 03:02:39;;;;;;;17.03;8.50;;;;;;;9.35;100.00;101053.34;7387832;19;20411;-61
2022/06/21 03:05:15;;;;;;;20.67;9.20;;;;;;;9.33;100.00;101050.69;7395335;19;20404;-61
2022/06/21 03:07:48;;;;;;;28.67;8.90;;;;;;;9.31;100.00;101053.19;7388269;19;20407;-61
2022/06/21 03:10:21;;;;;;;24.47;9.00;;;;;;;9.32;100.00;101054.97;7393455;19;20411;-60
2022/06/21 03:12:53;;;;;;;22.97;8.80;;;;;;;9.36;100.00;101060.25;7388598;19;20412;-61
2022/06/21 03:15:26;;;;;;;24.87;9.50;;;;;;;9.34;100.00;101056.72;7395278;19;20940;-61
2022/06/21 03:17:59;;;;;;;37.33;10.80;;;;;;;9.40;100.00;101057.03;7385428;19;20425;-61
2022/06/21 03:20:28;;;;;;;33.40;9.13;;;;;;;9.41;100.00;101048.50;7393980;19;20827;-60
2022/06/21 03:22:59;;;;;;;20.60;8.03;;;;;;;9.37;100.00;101036.25;7387364;19;20433;-61
2022/06/21 03:25:31;;;;;;;24.00;8.57;;;;;;;9.42;100.00;101042.53;7395232;19;20384;-61
2022/06/21 03:28:02;;;;;;;17.00;8.00;;;;;;;9.46;100.00;101036.75;7387990;19;20425;-61
2022/06/21 03:30:37;;;;;;;24.03;9.97;;;;;;;9.52;100.00;101037.06;7393563;19;20423;-61
2022/06/21 03:33:07;;;;;;;34.50;11.33;;;;;;;9.50;100.00;101033.53;7384445;19;20811;-61
2022/06/21 03:35:37;;;;;;;20.53;10.70;;;;;;;9.46;100.00;101039.31;7393945;19;20392;-61
2022/06/21 03:38:07;;;;;;;19.07;7.47;;;;;;;9.42;100.00;101045.13;7381166;19;20427;-61
2022/06/21 03:43:23;;;;;;;33.13;7.57;;;;;;;9.43;100.00;101049.44;7394036;19;20423;-61
2022/06/21 03:45:56;;;;;;;20.53;8.30;;;;;;;9.45;100.00;101053.88;7385352;19;20380;-61
2022/06/21 03:48:29;;;;;;;16.80;8.00;;;;;;;9.41;100.00;101054.56;7394143;19;20399;-61
2022/06/21 03:51:04;;;;;;;19.53;7.80;;;;;;;9.47;100.00;101073.72;7377587;19;20408;-61
2022/06/21 03:53:36;;;;;;;27.03;8.90;;;;;;;9.46;100.00;101070.22;7392586;19;20464;-61
2022/06/21 03:56:12;;;;;;;23.33;6.60;;;;;;;9.38;100.00;101074.13;7377817;19;20395;-61
2022/06/21 03:58:49;;;;;;;19.97;6.63;;;;;;;9.44;100.00;101071.84;7394323;19;20391;-61
2022/06/21 04:01:27;;;;;;;17.40;7.33;;;;;;;9.44;100.00;101084.72;7386098;19;20400;-61
2022/06/21 04:04:01;;;;;;;30.40;8.00;;;;;;;9.53;100.00;101080.03;7393920;19;20399;-61
2022/06/21 04:06:36;;;;;;;22.90;9.03;;;;;;;9.55;100.00;101088.72;7386983;19;20945;-61
2022/06/21 04:09:09;;;;;;;17.03;6.30;;;;;;;9.61;100.00;101092.41;7393104;19;20406;-62
2022/06/21 04:11:42;;;;;;;24.70;8.00;;;;;;;9.63;100.00;101098.56;7384994;19;20506;-61
2022/06/21 04:14:19;;;;;;;19.97;7.20;;;;;;;9.69;100.00;101102.31;7393762;19;20396;-61
2022/06/21 04:16:57;;;;;;;18.53;7.93;;;;;;;9.78;100.00;101104.47;7386878;19;20414;-61
2022/06/21 04:19:31;;;;;;;19.70;7.20;;;;;;;9.76;100.00;101108.69;7392923;19;20463;-61
2022/06/21 04:22:05;;;;;;;30.63;7.50;;;;;;;9.83;100.00;101108.19;7389326;19;20792;-61
2022/06/21 04:24:41;;;;;;;20.33;6.20;;;;;;;9.90;100.00;101103.31;7393548;19;20399;-61
2022/06/21 04:27:15;;;;;;;17.33;6.53;;;;;;;9.90;100.00;101100.75;7387446;19;20996;-61
2022/06/21 04:29:48;;;;;;;24.67;6.67;;;;;;;9.98;100.00;101104.59;7392790;19;20416;-61
2022/06/21 04:32:25;;;;;;;22.53;7.13;;;;;;;9.97;100.00;101102.81;7383749;19;20445;-61
2022/06/21 04:34:59;;;;;;;14.80;6.17;;;;;;;9.99;100.00;101106.34;7393208;19;20387;-61
2022/06/21 04:37:33;;;;;;;14.37;6.20;;;;;;;10.06;100.00;101116.16;7384588;19;20479;-60
2022/06/21 04:40:06;;;;;;;14.80;5.60;;;;;;;10.23;100.00;101116.09;7392072;19;20410;-61
2022/06/21 04:42:39;;;;;;;18.53;6.63;;;;;;;10.31;100.00;101119.06;7385014;19;20442;-61
2022/06/21 04:45:14;;;;;;;12.30;5.30;;;;;;;10.36;100.00;101126.22;7392688;19;20455;-61
2022/06/21 04:47:51;;;;;;;14.03;5.77;;;;;;;10.42;100.00;101135.06;7391641;19;20411;-61
2022/06/21 04:50:25;;;;;;;16.87;5.57;;;;;;;10.47;100.00;101136.22;7399106;19;20424;-61
2022/06/21 04:52:58;;;;;;;16.17;5.47;;;;;;;10.52;100.00;101139.91;7392417;19;20430;-61
2022/06/21 04:55:35;;;;;;;20.90;5.40;;;;;;;10.62;100.00;101149.81;7400034;19;20393;-61
2022/06/21 04:58:05;;;;;;;22.00;5.83;;;;;;;10.67;100.00;101150.94;7392459;19;20421;-61
2022/06/21 05:00:35;;;;;;;23.20;8.67;;;;;;;10.69;100.00;101155.28;7398035;19;20414;-61
2022/06/21 05:03:12;;;;;;;20.63;7.50;;;;;;;10.75;100.00;101161.63;7392529;19;20835;-61
2022/06/21 05:05:42;;;;;;;16.77;6.60;;;;;;;10.79;100.00;101166.13;7400064;19;20418;-61
2022/06/21 05:08:15;;;;;;;26.73;9.80;;;;;;;11.01;100.00;101158.50;7381093;19;20447;-61
2022/06/21 05:10:47;;;;;;;13.80;6.27;;;;;;;11.00;100.00;101167.06;7397665;19;20429;-61
2022/06/21 05:13:22;;;;;;;19.03;6.37;;;;;;;11.02;100.00;101183.53;7396158;19;20428;-61
2022/06/21 05:15:53;;;;;;;10.03;5.03;;;;;;;11.03;100.00;101208.53;7396861;19;20379;-63
2022/06/21 05:18:29;;;;;;;13.17;4.70;;;;;;;11.11;100.00;101232.09;7398413;19;20962;-61
2022/06/21 05:21:02;;;;;;;15.97;5.60;;;;;;;11.21;100.00;101231.72;7384047;19;20405;-61
2022/06/21 05:23:32;;;;;;;24.90;4.63;;;;;;;11.29;100.00;101234.69;7398750;19;20396;-61
2022/06/21 05:26:06;;;;;;;17.43;4.33;;;;;;;11.41;100.00;101239.53;7394184;19;20394;-61
2022/06/21 05:28:40;;;;;;;15.83;4.80;;;;;;;11.50;100.00;101254.56;7399290;19;20383;-60
2022/06/21 05:31:14;;;;;;;14.13;4.33;;;;;;;11.55;100.00;101253.97;7389038;19;20446;-60
2022/06/21 05:33:49;;;;;;;16.40;4.57;;;;;;;11.62;100.00;101260.28;7397141;19;20378;-60
2022/06/21 05:36:23;;;;;;;17.37;4.03;;;;;;;11.63;100.00;101282.75;7391707;19;20503;-60
2022/06/21 05:38:56;;;;;;;18.10;3.83;;;;;;;11.64;100.00;101294.84;7398344;19;20389;-60
2022/06/21 05:41:34;;;;;;;12.03;3.90;;;;;;;11.77;100.00;101296.28;7390377;19;20399;-60
2022/06/21 05:44:05;;;;;;;9.80;3.60;;;;;;;11.87;100.00;101295.91;7398219;19;20387;-59
2022/06/21 05:46:38;;;;;;;26.43;4.57;;;;;;;11.95;100.00;101303.13;7382612;19;21032;-59
2022/06/21 05:49:20;;;;;;;13.63;3.57;;;;;;;11.94;100.00;101307.41;7397864;19;20406;-59
2022/06/21 05:51:50;;;;;;;11.53;5.17;;;;;;;12.05;100.00;101309.63;7384837;19;20421;-60
2022/06/21 05:54:22;;;;;;;14.90;3.83;;;;;;;12.00;100.00;101315.44;7396216;19;20416;-60
2022/06/21 05:56:53;;;;;;;14.93;4.20;;;;;;;12.12;100.00;101316.84;7383721;19;20945;-60
2022/06/21 05:59:23;;;;;;;10.83;4.50;;;;;;;12.19;100.00;101324.03;7397414;19;20384;-60
2022/06/21 06:01:56;;;;;;;17.00;4.23;;;;;;;12.23;100.00;101327.66;7374151;19;20426;-59
2022/06/21 06:04:32;;;;;;;14.10;4.67;;;;;;;12.33;100.00;101334.09;7399844;19;20380;-60
2022/06/21 06:07:03;;;;;;;14.33;3.47;;;;;;;12.45;100.00;101342.41;7377861;19;20412;-59
2022/06/21 06:09:36;;;;;;;13.70;3.60;;;;;;;12.44;100.00;101348.41;7396888;19;20909;-59
2022/06/21 06:12:15;;;;;;;12.60;4.07;;;;;;;12.56;100.00;101345.44;7384716;19;20425;-59
2022/06/21 06:14:48;;;;;;;7.67;2.53;;;;;;;12.54;100.00;101352.28;7396416;19;20408;-59
2022/06/21 06:17:23;;;;;;;14.13;3.80;;;;;;;12.58;100.00;101348.13;7382155;19;20407;-59
2022/06/21 06:20:00;;;;;;;22.60;3.97;;;;;;;12.66;100.00;101352.81;7396580;19;20903;-59
2022/06/21 06:22:35;;;;;;;11.47;3.90;;;;;;;12.61;100.00;101353.44;7383555;19;20491;-59
2022/06/21 06:25:09;;;;;;;9.07;3.60;;;;;;;12.71;100.00;101363.34;7397397;19;20927;-59
2022/06/21 06:27:45;;;;;;;14.63;5.80;;;;;;;12.91;100.00;101360.72;7391495;19;20416;-59
2022/06/21 06:30:19;;;;;;;20.80;8.30;;;;;;;12.98;100.00;101351.50;7395678;19;20420;-59
2022/06/21 06:32:51;;;;;;;13.17;3.20;;;;;;;13.01;100.00;101341.25;7382638;19;20418;-59
2022/06/21 06:35:26;;;;;;;11.63;3.30;;;;;;;13.07;100.00;101349.28;7396852;19;20992;-60
2022/06/21 06:37:56;;;;;;;18.33;6.73;;;;;;;13.19;100.00;101359.28;7379076;19;20941;-59
2022/06/21 06:40:28;;;;;;;9.30;3.40;;;;;;;13.33;100.00;101360.72;7395446;19;20417;-59
2022/06/21 06:43:01;;;;;;;16.57;3.90;;;;;;;13.39;100.00;101359.19;7380887;19;20423;-60
2022/06/21 06:45:36;;;;;;;10.03;2.70;;;;;;;13.31;100.00;101364.94;7396605;19;20391;-59
2022/06/21 06:48:15;;;;;;;13.83;3.27;;;;;;;13.31;100.00;101362.38;7389220;19;20795;-59
2022/06/21 06:50:51;;;;;;;12.93;3.57;;;;;;;13.36;100.00;101354.75;7394696;19;20402;-59
2022/06/21 06:53:27;;;;;;;7.77;3.33;;;;;;;13.45;100.00;101369.81;7394961;19;20508;-59
2022/06/21 06:55:59;;;;;;;12.70;3.20;;;;;;;13.54;100.00;101361.53;7374786;19;20420;-60
2022/06/21 06:58:35;;;;;;;11.97;3.43;;;;;;;13.52;100.00;101361.47;7395803;19;20406;-59
2022/06/21 07:01:06;;;;;;;10.50;3.70;;;;;;;13.62;100.00;101363.59;7380886;19;20430;-59
2022/06/21 07:03:47;;;;;;;12.23;3.20;;;;;;;13.69;100.00;101375.09;7395848;19;20413;-59
2022/06/21 07:06:23;;;;;;;12.83;4.20;;;;;;;13.69;100.00;101369.91;7379443;19;20416;-59
2022/06/21 07:08:57;;;;;;;8.60;3.10;;;;;;;13.81;100.00;101389.34;7393417;19;20392;-59
2022/06/21 07:11:30;;;;;;;12.67;3.27;;;;;;;13.86;100.00;101373.16;7386005;19;20854;-59
2022/06/21 07:14:01;;;;;;;18.17;3.43;;;;;;;14.04;100.00;101366.88;7394308;19;20390;-59
2022/06/21 07:16:32;;;;;;;10.43;3.30;;;;;;;14.18;100.00;101370.00;7389230;19;20445;-59
2022/06/21 07:19:04;;;;;;;13.80;3.00;;;;;;;14.33;100.00;101359.28;7395074;19;20897;-60
2022/06/21 07:21:37;;;;;;;10.27;3.43;;;;;;;14.42;100.00;101366.53;7379483;19;20440;-60
2022/06/21 07:24:12;;;;;;;11.63;3.30;;;;;;;14.47;100.00;101366.69;7395039;19;20391;-59
2022/06/21 07:26:46;;;;;;;13.00;3.40;;;;;;;14.36;100.00;101349.00;7387600;19;20425;-59
2022/06/21 07:29:22;;;;;;;12.03;3.40;;;;;;;14.22;100.00;101345.03;7393445;19;20402;-59
2022/06/21 07:31:55;;;;;;;15.03;3.90;;;;;;;14.22;100.00;101337.25;7372092;19;20422;-60
2022/06/21 07:34:29;;;;;;;12.33;3.60;;;;;;;14.24;100.00;101338.16;7394374;19;20391;-59
2022/06/21 07:37:04;;;;;;;7.40;3.67;;;;;;;14.36;100.00;101328.22;7377599;19;20422;-59
2022/06/21 07:39:37;;;;;;;7.23;3.83;;;;;;;14.54;100.00;101321.91;7394462;19;20809;-60
2022/06/21 07:42:10;;;;;;;10.03;4.10;;;;;;;14.61;100.00;101323.88;7379873;19;20498;-59
2022/06/21 07:44:51;;;;;;;10.97;5.40;;;;;;;14.65;100.00;101319.69;7394756;19;20410;-59
2022/06/21 07:47:24;;;;;;;8.30;3.20;;;;;;;14.76;100.00;101300.19;7378526;19;20407;-59
2022/06/21 07:49:56;;;;;;;5.93;3.17;;;;;;;14.86;100.00;101301.38;7393912;19;20427;-59
2022/06/21 07:52:32;;;;;;;7.77;3.70;;;;;;;14.97;100.00;101306.91;7377699;19;20415;-59
2022/06/21 07:55:03;;;;;;;7.67;3.50;;;;;;;14.99;100.00;101295.75;7393491;19;20391;-59
2022/06/21 07:57:36;;;;;;;6.07;3.50;;;;;;;15.10;100.00;101300.41;7376565;19;20426;-59
2022/06/21 08:00:08;;;;;;;6.10;3.40;;;;;;;15.10;100.00;101298.72;7393100;19;20508;-59
2022/06/21 08:08:30;;;;;;;9.33;3.10;;;;;;;15.24;100.00;101265.31;7388966;19;20416;-59
2022/06/21 08:11:04;;;;;;;12.30;2.87;;;;;;;15.31;100.00;101281.09;7376104;19;20412;-59
2022/06/21 08:13:34;;;;;;;13.23;3.80;;;;;;;15.47;100.00;101283.34;7394430;19;20389;-59
2022/06/21 08:16:08;;;;;;;7.77;2.50;;;;;;;15.60;100.00;101273.31;7374902;19;20734;-60
2022/06/21 08:18:42;;;;;;;7.07;2.73;;;;;;;15.70;100.00;101258.84;7393850;19;20927;-59
2022/06/21 08:21:14;;;;;;;8.10;2.30;;;;;;;15.87;100.00;101272.31;7379796;19;20431;-60
2022/06/21 08:23:51;;;;;;;8.77;3.30;;;;;;;15.76;100.00;101270.31;7401567;19;20386;-59
2022/06/21 08:26:26;;;;;;;14.40;3.20;;;;;;;15.60;100.00;101268.09;7379796;19;20958;-59
2022/06/21 08:28:59;;;;;;;11.70;2.50;;;;;;;15.57;100.00;101270.59;7400724;19;20390;-59
2022/06/21 08:31:32;;;;;;;12.50;3.00;;;;;;;15.68;100.00;101261.41;7375558;19;20762;-59
2022/06/21 08:34:06;;;;;;;7.50;2.67;;;;;;;15.97;100.00;101266.59;7400833;19;20548;-59
2022/06/21 08:36:39;;;;;;;10.40;2.30;;;;;;;16.06;100.00;101230.38;7385430;19;20442;-60
2022/06/21 08:39:18;;;;;;;11.07;2.60;;;;;;;16.08;100.00;101227.84;7400409;19;20410;-59
2022/06/21 08:42:22;;;;;;;6.30;2.50;;;;;;;16.17;100.00;101227.19;7380117;19;20817;-60
2022/06/21 08:48:39;;;;;;;10.63;2.73;;;;;;;15.83;100.00;101234.94;7385678;19;20970;-59
2022/06/21 08:51:42;;;;;;;8.07;2.37;;;;;;;16.13;100.00;101243.56;7380674;19;20435;-60
2022/06/21 08:54:25;;;;;;;8.50;2.30;;;;;;;15.99;100.00;101236.28;7403872;19;20399;-59
2022/06/21 08:57:05;;;;;;;9.63;2.53;;;;;;;16.16;100.00;101247.13;7385609;19;20415;-59
2022/06/21 08:59:44;;;;;;;5.47;2.23;;;;;;;16.45;100.00;101251.31;7399335;19;20796;-59
2022/06/21 09:02:21;;;;;;;9.63;2.20;;;;;;;16.48;100.00;101227.97;7384229;19;20416;-60
2022/06/21 09:05:01;;;;;;;6.37;1.97;;;;;;;16.83;100.00;101219.25;7399599;19;20473;-60
2022/06/21 09:07:45;;;;;;;10.57;2.70;;;;;;;17.01;100.00;101244.84;7392336;19;20425;-59
2022/06/21 09:10:26;;;;;;;8.00;2.33;;;;;;;16.93;100.00;101217.75;7398149;19;20500;-59
2022/06/21 09:13:05;;;;;;;6.93;2.33;;;;;;;16.93;100.00;101192.56;7384467;19;20449;-60
2022/06/21 09:15:42;;;;;;;7.40;2.20;;;;;;;17.14;100.00;101181.75;7398030;19;20381;-60
2022/06/21 09:18:26;;;;;;;5.63;1.77;;;;;;;17.18;100.00;101187.91;7380517;19;20950;-60
2022/06/21 09:21:04;;;;;;;8.37;2.20;;;;;;;17.09;100.00;101151.22;7379616;19;20408;-60
2022/06/21 09:23:48;;;;;;;5.77;1.77;;;;;;;17.30;100.00;101148.19;7399335;19;20467;-59
2022/06/21 09:26:26;;;;;;;7.37;2.17;;;;;;;17.51;100.00;101129.47;7382747;19;20416;-59
2022/06/21 09:29:00;;;;;;;8.20;1.97;;;;;;;17.59;100.00;101126.13;7398580;19;20390;-59
2022/06/21 09:31:36;;;;;;;4.90;1.93;;;;;;;17.74;100.00;101109.88;7371719;19;20425;-60
2022/06/21 09:34:10;;;;;;;6.47;2.87;;;;;;;17.42;100.00;101103.19;7400102;19;20397;-60
2022/06/21 09:36:47;;;;;;;15.27;3.20;;;;;;;17.07;100.00;101114.69;7391303;19;20452;-59
2022/06/21 09:39:23;;;;;;;16.70;6.07;;;;;;;17.29;100.00;101107.31;7401156;19;20394;-59
2022/06/21 09:42:00;;;;;;;15.07;4.47;;;;;;;17.35;100.00;101099.63;7381993;19;20435;-59
2022/06/21 09:44:38;;;;;;;6.50;2.40;;;;;;;17.78;100.00;101132.53;7398304;19;20769;-60
2022/06/21 09:47:17;;;;;;;5.83;2.13;;;;;;;17.78;100.00;101128.22;7385948;19;20440;-60
2022/06/21 09:49:53;;;;;;;7.93;2.13;;;;;;;17.97;100.00;101122.41;7397113;19;20803;-60
2022/06/21 09:52:30;;;;;;;12.87;6.10;;;;;;;18.08;100.00;101110.47;7382956;19;20447;-60
2022/06/21 09:55:10;;;;;;;8.17;2.37;;;;;;;18.11;100.00;101046.97;7397297;19;20378;-60
2022/06/21 09:57:51;;;;;;;17.57;8.00;;;;;;;18.04;100.00;101009.41;7390500;19;20423;-60
2022/06/21 10:00:25;;;;;;;16.80;7.43;;;;;;;17.98;100.00;100981.50;7395979;19;20417;-59
2022/06/21 10:03:10;;;;;;;7.30;2.93;;;;;;;18.18;100.00;100960.06;7384122;19;20422;-59
2022/06/21 10:05:45;;;;;;;12.17;4.90;;;;;;;18.23;100.00;100974.06;7402252;19;20398;-60
2022/06/21 10:08:26;;;;;;;15.03;5.70;;;;;;;18.22;100.00;100935.75;7382143;19;20533;-60
2022/06/21 10:11:05;;;;;;;13.70;5.57;;;;;;;18.00;100.00;100918.88;7380123;19;20447;-60
2022/06/21 10:14:07;;;;;;;9.90;2.03;;;;;;;18.35;100.00;100931.53;7397320;19;20405;-60
2022/06/21 10:17:07;;;;;;;38.27;13.90;;;;;;;18.41;100.00;100915.94;7383006;19;20434;-60
2022/06/21 10:19:46;;;;;;;16.97;7.03;;;;;;;18.50;100.00;100894.28;7396164;19;20472;-60
2022/06/21 10:22:33;;;;;;;5.97;2.30;;;;;;;18.66;100.00;100840.44;7381344;19;20422;-60
2022/06/21 10:25:24;;;;;;;16.07;6.70;;;;;;;18.88;100.00;100819.75;7396780;19;20901;-60
2022/06/21 10:28:15;;;;;;;16.80;8.27;;;;;;;18.46;100.00;100715.75;7380801;19;20422;-60
2022/06/21 10:30:55;;;;;;;9.23;2.90;;;;;;;18.47;100.00;100717.50;7396365;19;20461;-60
2022/06/21 10:33:39;;;;;;;8.53;2.20;;;;;;;18.63;100.00;100709.81;7395331;19;20442;-60
2022/06/21 10:36:18;;;;;;;11.60;4.93;;;;;;;18.72;100.00;100696.78;7381919;19;20384;-60
2022/06/21 10:39:05;;;;;;;16.63;4.40;;;;;;;18.94;100.00;100702.19;7399170;19;20383;-60
2022/06/21 10:42:46;;;;;;;10.07;2.93;;;;;;;18.71;100.00;100705.50;7380519;19;20813;-59
2022/06/21 10:44:41;;;;;;;8.30;3.83;;;;;;;18.29;100.00;100608.56;7396464;19;20490;-60
2022/06/21 10:47:22;;;;;;;14.60;5.37;;;;;;;18.62;100.00;100619.22;7378973;19;20517;-60
2022/06/21 10:50:03;;;;;;;25.70;9.40;;;;;;;18.71;100.00;100611.44;7395477;19;20497;-60
2022/06/21 10:53:05;;;;;;;4.37;1.70;;;;;;;18.86;100.00;100599.31;7382815;19;20425;-59
2022/06/21 10:55:48;;;;;;;5.83;2.33;;;;;;;19.12;100.00;100601.22;7395577;19;20467;-60
2022/06/21 10:58:32;;;;;;;6.03;1.93;;;;;;;19.39;100.00;100584.72;7390806;19;20438;-60
2022/06/21 11:04:09;;;;;;;17.30;7.57;;;;;;;19.11;100.00;100641.28;7395465;19;20413;-60
2022/06/21 11:06:46;;;;;;;9.30;2.00;;;;;;;19.38;100.00;100661.44;7382201;19;20520;-60
2022/06/21 11:09:19;;;;;;;36.50;15.53;;;;;;;19.20;100.00;100717.16;7394645;19;20392;-60
2022/06/21 11:11:55;;;;;;;12.90;4.33;;;;;;;19.41;100.00;100712.91;7383637;19;20411;-60
2022/06/21 11:14:35;;;;;;;9.70;3.23;;;;;;;19.50;100.00;100739.13;7395664;19;20442;-60
2022/06/21 11:17:12;;;;;;;14.60;5.60;;;;;;;19.59;100.00;100779.25;7378428;19;20411;-59
2022/06/21 11:19:51;;;;;;;6.27;2.00;;;;;;;19.77;100.00;100783.69;7394500;19;20402;-59
2022/06/21 11:22:32;;;;;;;6.23;2.60;;;;;;;19.76;100.00;100813.34;7379734;19;20421;-60
2022/06/21 11:25:12;;;;;;;9.70;4.77;;;;;;;19.92;100.00;100833.50;7395572;19;20405;-60
2022/06/21 11:27:49;;;;;;;10.80;3.17;;;;;;;19.73;100.00;100834.28;7380614;19;20494;-59
2022/06/21 11:30:21;;;;;;;9.23;4.40;;;;;;;20.07;100.00;100803.94;7395174;19;20445;-60
2022/06/21 11:32:59;;;;;;;8.13;3.10;;;;;;;20.03;100.00;100823.09;7373692;19;20421;-59
2022/06/21 11:35:34;;;;;;;7.90;2.00;;;;;;;20.05;100.00;100831.81;7394178;19;20467;-59
2022/06/21 11:38:24;;;;;;;8.37;3.17;;;;;;;20.03;100.00;100830.06;7380842;19;20521;-60
2022/06/21 11:40:57;;;;;;;18.43;9.63;;;;;;;19.87;100.00;100843.06;7376153;19;20427;-61
2022/06/21 11:43:38;;;;;;;7.37;2.13;;;;;;;19.94;100.00;100854.47;7393228;19;20392;-60
2022/06/21 11:46:17;;;;;;;11.90;2.87;;;;;;;20.09;100.00;100841.44;7381238;19;20443;-60
2022/06/21 11:49:31;;;;;;;10.60;4.37;;;;;;;20.15;100.00;100853.69;7394458;19;20730;-60
2022/06/21 11:52:44;;;;;;;23.37;12.23;;;;;;;19.88;100.00;100870.16;7382057;19;20981;-60
2022/06/21 11:55:28;;;;;;;10.17;3.63;;;;;;;19.65;100.00;100865.66;7392916;19;20388;-60
2022/06/21 11:58:10;;;;;;;18.40;4.07;;;;;;;19.71;100.00;100865.69;7379762;19;20419;-60
2022/06/21 12:00:43;;;;;;;16.53;7.23;;;;;;;19.43;100.00;100852.41;7392412;19;20480;-60
2022/06/21 12:03:18;;;;;;;54.80;24.53;;;;;;;19.74;100.00;100854.34;7379377;19;20498;-60
2022/06/21 12:05:51;;;;;;;12.97;5.17;;;;;;;20.10;100.00;100866.75;7398310;19;20490;-60
2022/06/21 12:08:29;;;;;;;15.83;6.47;;;;;;;20.14;100.00;100877.28;7393348;19;20415;-60